Time;durP1;ratioP1;P1;durP2;ratioP2;P2;SDS_P1;SDS_P2;PMS_P1;PMS_P2;Temp;Humidity;BMP_temperature;BMP_pressure;BME280_temperature;BME280_humidity;BME280_pressure;Samples;Min_cycle;Max_cycle;Signal;HPM_P1;HPM_P2
2022/12/02 00:01:51;;;;;;;60.97;19.88;;;3.90;99.90;;;;;;5056420;28;20066;-73
2022/12/02 00:04:20;;;;;;;54.42;19.33;;;3.90;99.90;;;;;;5038487;28;20025;-73
2022/12/02 00:06:45;;;;;;;67.35;21.33;;;3.90;99.90;;;;;;5038191;28;20040;-73
2022/12/02 00:09:34;;;;;;;62.45;21.88;;;3.90;99.90;;;;;;5056687;28;20388;-73
2022/12/02 00:12:10;;;;;;;;;;;3.90;99.90;;;;;;5038802;28;20025;-73
2022/12/02 00:14:35;;;;;;;62.25;20.25;;;3.90;99.90;;;;;;5056433;28;19904;-73
2022/12/02 00:17:01;;;;;;;62.83;20.13;;;3.90;99.90;;;;;;5055508;28;20495;-73
2022/12/02 00:19:26;;;;;;;64.68;20.13;;;3.90;99.90;;;;;;5056028;28;20483;-73
2022/12/02 00:21:52;;;;;;;60.47;21.10;;;3.90;99.90;;;;;;5038046;28;20025;-73
2022/12/02 00:24:18;;;;;;;65.18;20.92;;;3.80;99.90;;;;;;5056104;28;20029;-73
2022/12/02 00:26:44;;;;;;;64.57;22.23;;;3.80;99.90;;;;;;5037734;28;20480;-73
2022/12/02 00:29:10;;;;;;;60.35;20.98;;;3.80;99.90;;;;;;5037974;28;20029;-73
2022/12/02 00:31:36;;;;;;;59.53;20.90;;;;;;;;;;5038236;28;20072;-73
2022/12/02 00:34:03;;;;;;;61.72;19.73;;;3.90;99.90;;;;;;5037611;28;20035;-73
2022/12/02 00:36:29;;;;;;;67.40;21.38;;;3.80;99.90;;;;;;5055332;28;20025;-73
2022/12/02 00:38:55;;;;;;;64.60;21.27;;;3.80;99.90;;;;;;5037805;28;20024;-73
2022/12/02 00:41:22;;;;;;;64.57;22.15;;;3.90;99.90;;;;;;5054785;28;20029;-73
2022/12/02 00:46:36;;;;;;;66.68;20.88;;;3.90;99.90;;;;;;5055424;28;20051;-73
2022/12/02 00:49:06;;;;;;;65.13;22.33;;;3.90;99.90;;;;;;5055355;28;20031;-73
2022/12/02 00:51:32;;;;;;;73.38;23.65;;;3.90;99.90;;;;;;5037473;28;20016;-73
2022/12/02 00:53:58;;;;;;;68.38;21.80;;;3.90;99.90;;;;;;5037857;28;20016;-73
2022/12/02 00:56:24;;;;;;;90.43;23.55;;;3.90;99.90;;;;;;5037188;28;20028;-73
2022/12/02 00:58:49;;;;;;;74.13;23.77;;;3.90;99.90;;;;;;5055374;28;20022;-73
2022/12/02 01:01:15;;;;;;;67.75;24.30;;;3.90;99.90;;;;;;5054759;28;20040;-73
2022/12/02 01:03:41;;;;;;;73.00;23.65;;;3.80;99.90;;;;;;5036877;28;20472;-73
2022/12/02 01:06:06;;;;;;;69.32;21.65;;;3.90;99.90;;;;;;5054654;28;20076;-73
2022/12/02 01:08:33;;;;;;;80.43;24.30;;;3.90;99.90;;;;;;5055643;28;20082;-73
2022/12/02 01:10:58;;;;;;;78.03;24.60;;;3.90;99.90;;;;;;5054777;28;20100;-73
2022/12/02 01:13:26;;;;;;;63.67;20.48;;;3.90;99.90;;;;;;5036646;28;20045;-73
2022/12/02 01:15:51;;;;;;;70.55;23.00;;;3.70;99.90;;;;;;5036548;28;20021;-73
2022/12/02 01:18:17;;;;;;;66.13;22.98;;;3.90;99.90;;;;;;5036941;28;20043;-73
2022/12/02 01:20:43;;;;;;;81.78;23.33;;;4.10;99.90;;;;;;5036556;28;20029;-73
2022/12/02 01:23:09;;;;;;;71.07;23.35;;;3.80;99.90;;;;;;5054421;28;20056;-73
2022/12/02 01:25:34;;;;;;;72.32;21.83;;;3.80;99.90;;;;;;5036644;28;20040;-74
2022/12/02 01:28:00;;;;;;;69.35;23.67;;;3.80;99.90;;;;;;5054296;28;20096;-74
2022/12/02 01:30:26;;;;;;;75.30;22.52;;;3.80;99.90;;;;;;5054047;28;20033;-73
2022/12/02 01:32:52;;;;;;;69.55;22.13;;;3.80;99.90;;;;;;5036737;28;20060;-74
2022/12/02 01:35:18;;;;;;;65.10;21.83;;;3.80;99.90;;;;;;5054193;28;20021;-73
2022/12/02 01:37:43;;;;;;;71.00;22.13;;;3.80;99.90;;;;;;5036063;28;20025;-74
2022/12/02 01:40:10;;;;;;;65.85;23.20;;;3.80;99.90;;;;;;5036450;28;20028;-74
2022/12/02 01:42:37;;;;;;;71.55;23.13;;;3.80;99.90;;;;;;5036057;28;20017;-74
2022/12/02 01:45:03;;;;;;;69.80;22.90;;;3.80;99.90;;;;;;5053974;28;20029;-73
2022/12/02 01:47:28;;;;;;;67.88;22.92;;;3.80;99.90;;;;;;5054026;28;20439;-73
2022/12/02 01:49:54;;;;;;;68.22;21.65;;;3.80;99.90;;;;;;5035997;28;20028;-73
2022/12/02 01:52:20;;;;;;;63.85;20.88;;;3.80;99.90;;;;;;5035409;28;20357;-74
2022/12/02 01:54:46;;;;;;;72.40;22.25;;;3.80;99.90;;;;;;5054120;28;20017;-73
2022/12/02 01:57:14;;;;;;;67.32;22.73;;;3.80;99.90;;;;;;5036054;28;20028;-74
2022/12/02 01:59:41;;;;;;;66.60;22.52;;;3.80;99.90;;;;;;5053796;28;20087;-74
2022/12/02 02:02:24;;;;;;;72.90;23.65;;;3.90;99.90;;;;;;5035817;28;20075;-74
2022/12/02 02:04:52;;;;;;;71.57;23.42;;;3.90;99.90;;;;;;5053563;28;20039;-73
2022/12/02 02:07:21;;;;;;;60.83;21.85;;;3.80;99.90;;;;;;5036423;28;20029;-73
2022/12/02 02:09:46;;;;;;;68.20;23.02;;;3.80;99.90;;;;;;5035712;28;20025;-73
2022/12/02 02:12:12;;;;;;;65.00;21.05;;;3.80;99.90;;;;;;5053603;28;20024;-74
2022/12/02 02:14:38;;;;;;;67.72;21.02;;;3.90;99.90;;;;;;5053566;28;20017;-74
2022/12/02 02:17:03;;;;;;;63.90;21.13;;;3.90;99.90;;;;;;5035565;28;20018;-74
2022/12/02 02:19:30;;;;;;;60.72;21.25;;;3.90;99.90;;;;;;5053478;28;20025;-74
2022/12/02 02:21:56;;;;;;;72.97;22.92;;;3.90;99.90;;;;;;5053463;28;20061;-73
2022/12/02 02:24:23;;;;;;;67.10;21.95;;;3.90;99.90;;;;;;5035464;28;20029;-74
2022/12/02 02:26:49;;;;;;;57.35;19.13;;;3.90;99.90;;;;;;5053379;28;20039;-74
2022/12/02 02:29:14;;;;;;;61.88;21.33;;;3.90;99.90;;;;;;5035437;28;20037;-74
2022/12/02 02:31:40;;;;;;;70.95;21.83;;;3.90;99.90;;;;;;5035505;28;20079;-74
2022/12/02 02:34:07;;;;;;;65.93;21.75;;;3.90;99.90;;;;;;5053472;28;20021;-73
2022/12/02 02:36:33;;;;;;;73.47;22.23;;;3.90;99.90;;;;;;5035462;28;20075;-73
2022/12/02 02:38:58;;;;;;;67.63;21.67;;;3.90;99.90;;;;;;5053396;28;20029;-74
2022/12/02 02:41:25;;;;;;;57.65;19.25;;;3.90;99.90;;;;;;5053733;28;20108;-73
2022/12/02 02:43:51;;;;;;;66.40;21.02;;;3.90;99.90;;;;;;5035524;28;20374;-73
2022/12/02 02:46:17;;;;;;;67.43;21.45;;;3.90;99.90;;;;;;5053347;28;20025;-74
2022/12/02 02:48:43;;;;;;;62.28;20.60;;;3.90;99.90;;;;;;5053181;28;20025;-74
2022/12/02 02:51:11;;;;;;;65.20;20.17;;;3.90;99.90;;;;;;5053220;28;20025;-73
2022/12/02 02:53:36;;;;;;;58.70;20.30;;;3.90;99.90;;;;;;5035210;28;20025;-74
2022/12/02 02:56:02;;;;;;;70.68;19.55;;;3.90;99.90;;;;;;5053395;28;20025;-73
2022/12/02 02:58:28;;;;;;;65.35;20.40;;;3.90;99.90;;;;;;5053622;28;20106;-73
2022/12/02 03:00:59;;;;;;;68.05;20.42;;;3.90;99.90;;;;;;5053039;28;20155;-73
2022/12/02 03:03:28;;;;;;;64.28;19.00;;;3.90;99.90;;;;;;5036298;28;20032;-73
2022/12/02 03:05:56;;;;;;;62.42;19.27;;;3.90;99.90;;;;;;5039085;28;20033;-73
2022/12/02 03:08:23;;;;;;;65.32;19.33;;;3.90;99.90;;;;;;5057282;28;20025;-73
2022/12/02 03:10:50;;;;;;;64.57;19.95;;;4.00;99.90;;;;;;5039179;28;20112;-73
2022/12/02 03:13:16;;;;;;;59.90;20.17;;;3.90;99.90;;;;;;5057033;28;20499;-73
2022/12/02 03:15:42;;;;;;;59.08;17.88;;;3.90;99.90;;;;;;5039028;28;20112;-73
2022/12/02 03:18:08;;;;;;;58.33;19.27;;;3.90;99.90;;;;;;5057033;28;20024;-74
2022/12/02 03:20:34;;;;;;;59.65;19.33;;;3.90;99.90;;;;;;5039347;28;20111;-74
2022/12/02 03:23:01;;;;;;;58.72;17.35;;;3.90;99.90;;;;;;5038889;28;20067;-74
2022/12/02 03:25:27;;;;;;;56.05;19.45;;;3.90;99.90;;;;;;5038592;28;20466;-74
2022/12/02 03:27:52;;;;;;;57.83;17.08;;;3.90;99.90;;;;;;5056727;28;20025;-74
2022/12/02 03:30:21;;;;;;;57.25;17.55;;;3.90;99.90;;;;;;5065358;22;20401;-74
2022/12/02 03:32:47;;;;;;;65.20;20.65;;;3.90;99.90;;;;;;5056656;28;20104;-74
2022/12/02 03:35:13;;;;;;;64.47;19.20;;;3.90;99.90;;;;;;5038513;28;20049;-74
2022/12/02 03:37:42;;;;;;;65.00;19.98;;;3.90;99.90;;;;;;5038619;28;20028;-76
2022/12/02 03:40:08;;;;;;;62.92;18.92;;;3.90;99.90;;;;;;5056289;28;20021;-76
2022/12/02 03:42:34;;;;;;;55.97;17.48;;;3.90;99.90;;;;;;5056115;28;20098;-76
2022/12/02 03:45:00;;;;;;;57.38;18.13;;;3.90;99.90;;;;;;5038349;28;20095;-77
2022/12/02 03:47:28;;;;;;;58.33;15.93;;;3.80;99.90;;;;;;5056950;28;20025;-77
2022/12/02 03:49:54;;;;;;;57.13;17.42;;;3.90;99.90;;;;;;5038044;28;20032;-77
2022/12/02 03:52:20;;;;;;;64.82;19.15;;;3.90;99.90;;;;;;5038164;28;20021;-77
2022/12/02 03:54:45;;;;;;;58.80;17.50;;;3.90;99.90;;;;;;5056080;28;20021;-77
2022/12/02 03:57:11;;;;;;;58.17;18.02;;;3.80;99.90;;;;;;5055899;28;20025;-77
2022/12/02 03:59:36;;;;;;;55.63;17.80;;;3.80;99.90;;;;;;5055910;28;20025;-77
2022/12/02 04:02:08;;;;;;;59.55;17.75;;;3.90;99.90;;;;;;5037922;28;20035;-77
2022/12/02 04:04:37;;;;;;;52.63;15.65;;;3.90;99.90;;;;;;5037981;28;20020;-76
2022/12/02 04:07:02;;;;;;;46.25;13.82;;;4.20;99.90;;;;;;5055753;28;20037;-76
2022/12/02 04:09:28;;;;;;;56.78;17.40;;;3.90;99.90;;;;;;5037664;28;20070;-77
2022/12/02 04:11:56;;;;;;;58.80;17.55;;;3.90;99.90;;;;;;5056341;28;20024;-76
2022/12/02 04:14:21;;;;;;;62.30;18.90;;;3.80;99.90;;;;;;5055524;28;20078;-76
2022/12/02 04:16:47;;;;;;;62.58;16.95;;;3.90;99.90;;;;;;5036973;28;20043;-77
2022/12/02 04:21:42;;;;;;;60.25;16.60;;;3.80;99.90;;;;;;5054943;28;20415;-77
2022/12/02 04:24:11;;;;;;;62.63;18.42;;;;;;;;;;5056664;28;20468;-77
2022/12/02 04:26:37;;;;;;;52.47;16.73;;;;;;;;;;5057074;28;20032;-77
2022/12/02 04:29:02;;;;;;;63.97;19.83;;;3.90;99.90;;;;;;5038673;28;20025;-77
2022/12/02 04:31:28;;;;;;;58.55;17.42;;;3.80;99.90;;;;;;5037990;28;20029;-77
2022/12/02 04:33:53;;;;;;;61.20;18.40;;;3.80;99.90;;;;;;5038526;28;20029;-77
2022/12/02 04:36:19;;;;;;;59.80;18.90;;;4.10;99.90;;;;;;5055785;28;20029;-77
2022/12/02 04:38:45;;;;;;;58.65;17.77;;;3.90;99.90;;;;;;5056043;28;20096;-77
2022/12/02 04:41:10;;;;;;;59.10;15.90;;;3.80;99.90;;;;;;5037940;28;20021;-77
2022/12/02 04:43:38;;;;;;;58.42;16.95;;;3.80;99.90;;;;;;5056518;28;20040;-77
2022/12/02 04:46:04;;;;;;;59.40;16.55;;;3.60;99.90;;;;;;5038140;28;20029;-77
2022/12/02 04:48:30;;;;;;;58.35;17.20;;;;;;;;;;5038402;28;20108;-77
2022/12/02 04:50:56;;;;;;;46.88;16.17;;;;;;;;;;5056439;28;20488;-77
2022/12/02 04:53:21;;;;;;;58.05;18.40;;;3.90;99.90;;;;;;5056062;28;20025;-77
2022/12/02 04:55:47;;;;;;;55.70;16.48;;;3.90;99.90;;;;;;5037854;28;20017;-77
2022/12/02 04:58:13;;;;;;;56.90;16.17;;;3.90;99.90;;;;;;5038123;28;20091;-77
2022/12/02 05:00:39;;;;;;;57.67;17.25;;;3.90;99.90;;;;;;5038114;28;20033;-76
2022/12/02 05:03:05;;;;;;;54.25;16.60;;;3.90;99.90;;;;;;5037815;28;20031;-77
2022/12/02 05:05:30;;;;;;;61.40;18.63;;;3.80;99.90;;;;;;5055170;28;20036;-77
2022/12/02 05:07:56;;;;;;;57.10;17.83;;;5.30;99.90;;;;;;5055182;28;20040;-77
2022/12/02 05:10:24;;;;;;;62.45;17.30;;;3.90;99.90;;;;;;5037416;28;20512;-77
2022/12/02 05:12:50;;;;;;;53.08;15.90;;;3.70;99.90;;;;;;5037444;28;20119;-77
2022/12/02 05:15:19;;;;;;;57.88;16.92;;;3.90;99.90;;;;;;5055544;28;20120;-77
2022/12/02 05:17:44;;;;;;;;;;;3.90;99.90;;;;;;5037712;28;20115;-77
2022/12/02 05:20:11;;;;;;;49.58;15.50;;;3.90;99.90;;;;;;5055332;28;20379;-77
2022/12/02 05:22:37;;;;;;;51.38;16.13;;;3.90;99.90;;;;;;5038678;28;20031;-77
2022/12/02 05:25:03;;;;;;;51.80;13.93;;;3.90;99.90;;;;;;5055078;28;20100;-76
2022/12/02 05:27:31;;;;;;;45.85;15.35;;;3.90;99.90;;;;;;5055175;28;20104;-77
2022/12/02 05:29:57;;;;;;;51.05;15.85;;;3.80;99.90;;;;;;5054409;28;20440;-77
2022/12/02 05:32:23;;;;;;;53.47;15.52;;;7.40;99.90;;;;;;5037419;28;20059;-77
2022/12/02 05:34:48;;;;;;;52.60;15.00;;;3.80;99.90;;;;;;5054142;28;20053;-76
2022/12/02 05:37:14;;;;;;;52.30;14.73;;;;;;;;;;5036360;28;20108;-76
2022/12/02 05:39:43;;;;;;;47.80;15.32;;;3.70;99.90;;;;;;5036299;28;20033;-76
2022/12/02 05:42:12;;;;;;;37.13;11.45;;;3.60;99.90;;;;;;5054617;28;20025;-77
2022/12/02 05:44:39;;;;;;;52.42;15.30;;;;;;;;;;5036234;28;20027;-77
2022/12/02 05:47:15;;;;;;;51.05;16.45;;;3.70;99.90;;;;;;5054098;28;20033;-77
2022/12/02 05:49:49;;;;;;;50.90;14.80;;;3.70;99.90;;;;;;5054054;28;20543;-77
2022/12/02 05:52:25;;;;;;;55.42;16.70;;;3.70;99.90;;;;;;5054075;28;20070;-77
2022/12/02 05:54:57;;;;;;;49.78;14.52;;;3.70;99.90;;;;;;5036067;28;20554;-77
2022/12/02 05:57:31;;;;;;;52.83;14.32;;;7.30;99.90;;;;;;5036107;28;20085;-77
2022/12/02 06:00:20;;;;;;;48.55;14.85;;;3.70;99.90;;;;;;5054188;28;20048;-77
2022/12/02 06:02:54;;;;;;;42.88;14.15;;;3.60;99.90;;;;;;5036336;28;20443;-76
2022/12/02 06:05:23;;;;;;;46.22;14.63;;;3.70;99.90;;;;;;5054430;28;20387;-76
2022/12/02 06:08:07;;;;;;;42.00;13.68;;;3.70;99.90;;;;;;5053919;28;20025;-76
2022/12/02 06:10:36;;;;;;;45.20;13.20;;;3.60;99.90;;;;;;5054438;28;20112;-76
2022/12/02 06:13:13;;;;;;;50.25;14.70;;;3.60;99.90;;;;;;5036256;28;20083;-76
2022/12/02 06:15:39;;;;;;;47.75;13.25;;;;;;;;;;5035653;28;20044;-77
2022/12/02 06:18:19;;;;;;;41.95;13.60;;;3.50;99.90;;;;;;5036016;28;20029;-76
2022/12/02 06:20:54;;;;;;;51.30;14.15;;;3.30;99.90;;;;;;5035957;28;20033;-76
2022/12/02 06:23:21;;;;;;;51.97;14.20;;;3.50;99.90;;;;;;5036124;28;20029;-76
2022/12/02 06:25:57;;;;;;;45.30;13.30;;;3.40;99.90;;;;;;5035526;28;20541;-77
2022/12/02 06:28:37;;;;;;;48.88;13.13;;;3.40;99.90;;;;;;5035895;28;20032;-77
2022/12/02 06:31:34;;;;;;;48.83;13.63;;;3.30;99.90;;;;;;5053794;28;20133;-77
2022/12/02 06:34:34;;;;;;;49.70;13.45;;;3.30;99.90;;;;;;5010210;28;20033;-79
2022/12/02 06:37:08;;;;;;;42.38;13.25;;;3.30;99.90;;;;;;5021029;28;20029;-79
2022/12/02 06:39:34;;;;;;;38.83;12.93;;;3.30;99.90;;;;;;5042549;28;20122;-79
2022/12/02 06:42:17;;;;;;;45.53;12.82;;;3.30;99.90;;;;;;5043525;28;20475;-79
2022/12/02 06:45:03;;;;;;;46.85;11.43;;;3.20;99.90;;;;;;5043394;28;20537;-79
2022/12/02 06:47:31;;;;;;;41.13;11.95;;;3.20;99.90;;;;;;5062020;28;20438;-79
2022/12/02 06:50:03;;;;;;;32.63;9.77;;;3.20;99.90;;;;;;5043242;28;20029;-80
2022/12/02 06:52:31;;;;;;;44.30;12.80;;;3.20;99.90;;;;;;5044908;28;20040;-79
2022/12/02 06:55:00;;;;;;;37.30;10.40;;;3.20;99.90;;;;;;5044028;28;20021;-79
2022/12/02 06:57:30;;;;;;;40.83;11.82;;;3.20;99.90;;;;;;5061027;28;20048;-79
2022/12/02 06:59:56;;;;;;;32.38;10.30;;;3.20;99.90;;;;;;5041975;28;20044;-79
2022/12/02 07:02:30;;;;;;;33.95;11.60;;;3.20;99.90;;;;;;5043875;28;20480;-78
2022/12/02 07:04:59;;;;;;;32.90;9.55;;;3.20;99.90;;;;;;5061276;28;20060;-78
2022/12/02 07:07:33;;;;;;;36.28;11.20;;;3.20;99.90;;;;;;5043598;28;20108;-79
2022/12/02 07:10:07;;;;;;;33.05;11.02;;;3.20;99.90;;;;;;5044098;28;20475;-79
2022/12/02 07:12:36;;;;;;;39.95;12.98;;;3.10;99.90;;;;;;5044746;28;20024;-79
2022/12/02 07:15:30;;;;;;;35.40;10.23;;;5.10;99.90;;;;;;5042872;28;20097;-79
2022/12/02 07:17:58;;;;;;;29.50;9.63;;;3.10;99.90;;;;;;5060867;28;20056;-79
2022/12/02 07:20:35;;;;;;;34.83;9.43;;;3.00;99.90;;;;;;5043455;28;20041;-79
2022/12/02 07:23:22;;;;;;;34.15;10.20;;;3.10;99.90;;;;;;5061176;28;20025;-79
2022/12/02 07:25:56;;;;;;;33.42;10.25;;;3.10;99.90;;;;;;5042404;28;20021;-79
2022/12/02 07:28:27;;;;;;;28.65;9.18;;;3.10;99.90;;;;;;5042727;28;20033;-79
2022/12/02 07:31:12;;;;;;;35.67;10.00;;;3.10;99.90;;;;;;5061078;28;20025;-79
2022/12/02 07:33:40;;;;;;;39.45;11.27;;;3.10;99.90;;;;;;5042161;28;20035;-79
2022/12/02 07:36:06;;;;;;;28.00;9.25;;;3.00;99.90;;;;;;5060205;28;20021;-79
2022/12/02 07:38:35;;;;;;;36.83;10.57;;;;;;;;;;5042818;28;20074;-79
2022/12/02 07:41:01;;;;;;;;;;;3.10;99.90;;;;;;5043427;28;20399;-79
2022/12/02 07:43:26;;;;;;;32.35;9.95;;;3.00;99.90;;;;;;5043275;28;19905;-79
2022/12/02 07:45:52;;;;;;;30.98;8.90;;;3.00;99.90;;;;;;5043317;28;20480;-79
2022/12/02 07:48:17;;;;;;;31.55;8.65;;;3.00;99.90;;;;;;5060444;28;20124;-79
2022/12/02 07:50:43;;;;;;;33.85;10.80;;;3.00;99.90;;;;;;5040741;28;20029;-79
2022/12/02 07:53:09;;;;;;;32.28;9.52;;;3.00;99.90;;;;;;5039753;28;20492;-79
2022/12/02 07:55:34;;;;;;;32.17;9.20;;;3.00;99.90;;;;;;5039808;28;20025;-79
2022/12/02 07:58:00;;;;;;;32.03;11.57;;;3.00;99.90;;;;;;5038698;28;20055;-79
2022/12/02 08:00:25;;;;;;;31.27;9.50;;;3.00;99.90;;;;;;5039161;28;20021;-79
2022/12/02 08:02:52;;;;;;;27.70;8.75;;;3.00;99.90;;;;;;5039309;28;20017;-79
2022/12/02 08:05:17;;;;;;;29.88;9.10;;;3.00;99.90;;;;;;5038957;28;20502;-79
2022/12/02 08:07:43;;;;;;;26.40;8.90;;;5.90;99.90;;;;;;5038883;28;20029;-79
2022/12/02 08:10:09;;;;;;;31.98;9.50;;;;;;;;;;5056375;28;20025;-79
2022/12/02 08:12:35;;;;;;;31.65;9.90;;;3.00;99.90;;;;;;5057148;28;20029;-79
2022/12/02 08:15:01;;;;;;;34.88;9.57;;;3.00;99.90;;;;;;5056700;28;20043;-79
2022/12/02 08:17:29;;;;;;;28.88;10.35;;;3.00;99.90;;;;;;5039081;28;20025;-79
2022/12/02 08:19:57;;;;;;;26.13;9.88;;;3.00;99.90;;;;;;5038828;28;20114;-79
2022/12/02 08:22:23;;;;;;;28.00;9.60;;;3.10;99.90;;;;;;5039231;28;20103;-79
2022/12/02 08:24:55;;;;;;;30.63;9.32;;;3.00;99.90;;;;;;5056638;28;20499;-79
2022/12/02 08:27:21;;;;;;;27.20;9.15;;;3.00;99.90;;;;;;5038837;28;20086;-79
2022/12/02 08:29:48;;;;;;;26.15;9.65;;;3.00;99.90;;;;;;5056332;28;20084;-79
2022/12/02 08:32:18;;;;;;;30.42;9.40;;;3.10;99.90;;;;;;5038417;28;20092;-79
2022/12/02 08:34:46;;;;;;;31.00;10.63;;;3.10;99.90;;;;;;5056149;28;20396;-79
2022/12/02 08:37:13;;;;;;;35.28;9.80;;;3.10;99.90;;;;;;5038247;28;20048;-79
2022/12/02 08:39:41;;;;;;;28.90;10.60;;;3.00;99.90;;;;;;5037775;28;20098;-79
2022/12/02 08:42:07;;;;;;;28.05;9.20;;;3.10;99.90;;;;;;5038325;28;20033;-79
2022/12/02 08:44:36;;;;;;;28.27;9.82;;;4.80;99.90;;;;;;5056352;28;20033;-79
2022/12/02 08:47:02;;;;;;;30.42;10.00;;;3.10;99.90;;;;;;5056064;28;20025;-79
2022/12/02 08:49:33;;;;;;;27.35;8.27;;;3.10;99.90;;;;;;5038287;28;20032;-79
2022/12/02 08:51:58;;;;;;;27.63;9.70;;;3.10;99.90;;;;;;5038123;28;20437;-79
2022/12/02 08:54:27;;;;;;;26.25;8.80;;;3.10;99.90;;;;;;5055708;28;20021;-79
2022/12/02 08:56:55;;;;;;;30.42;8.75;;;3.10;99.90;;;;;;5056063;28;20154;-79
2022/12/02 08:59:27;;;;;;;28.00;9.65;;;3.00;99.90;;;;;;5055600;28;20021;-79
2022/12/02 09:01:53;;;;;;;36.63;9.82;;;3.10;99.90;;;;;;5037027;28;20029;-79
2022/12/02 09:04:18;;;;;;;33.60;10.52;;;3.10;99.90;;;;;;5055182;28;20028;-79
2022/12/02 09:06:44;;;;;;;33.42;9.82;;;3.10;99.90;;;;;;5037835;28;20021;-79
2022/12/02 09:09:13;;;;;;;28.17;9.57;;;3.20;99.90;;;;;;5055415;28;20028;-79
2022/12/02 09:11:39;;;;;;;27.50;8.57;;;3.20;99.90;;;;;;5037525;28;20028;-79
2022/12/02 09:14:04;;;;;;;31.17;8.52;;;3.20;99.90;;;;;;5037606;28;20024;-79
2022/12/02 09:16:30;;;;;;;30.45;9.32;;;3.20;99.90;;;;;;5055513;28;20028;-79
2022/12/02 09:18:57;;;;;;;28.95;9.63;;;;;;;;;;5037611;28;20119;-79
2022/12/02 09:21:25;;;;;;;29.58;9.75;;;3.30;99.90;;;;;;5037558;28;20043;-79
2022/12/02 09:23:53;;;;;;;28.48;8.65;;;3.30;99.90;;;;;;5037916;28;20075;-78
2022/12/02 09:26:19;;;;;;;28.27;9.43;;;;;;;;;;5055073;28;20021;-79
2022/12/02 09:28:45;;;;;;;26.33;8.27;;;;;;;;;;5056047;28;20528;-79
2022/12/02 09:31:11;;;;;;;30.05;8.77;;;3.30;99.90;;;;;;5037273;28;20079;-79
2022/12/02 09:33:37;;;;;;;30.60;9.88;;;3.30;99.90;;;;;;5055370;28;20468;-78
2022/12/02 09:36:02;;;;;;;30.50;9.00;;;3.30;99.90;;;;;;5037584;28;20396;-79
2022/12/02 09:38:31;;;;;;;28.30;8.75;;;3.30;99.90;;;;;;5055295;28;20017;-79
2022/12/02 09:40:58;;;;;;;30.40;9.35;;;3.30;99.90;;;;;;5037176;28;20115;-79
2022/12/02 09:43:35;;;;;;;24.70;8.60;;;3.30;99.90;;;;;;5055405;28;20025;-79
2022/12/02 09:46:03;;;;;;;24.27;8.27;;;3.40;99.90;;;;;;5037728;28;20032;-79
2022/12/02 09:48:32;;;;;;;24.33;8.83;;;3.40;99.90;;;;;;5055747;28;20076;-79
2022/12/02 09:51:01;;;;;;;27.85;9.57;;;3.40;99.90;;;;;;5054858;28;20280;-79
2022/12/02 09:53:35;;;;;;;26.85;9.05;;;3.40;99.90;;;;;;5036954;28;20024;-79
2022/12/02 09:56:01;;;;;;;26.65;8.75;;;3.30;99.90;;;;;;5054772;28;20075;-79
2022/12/02 09:58:30;;;;;;;29.02;8.23;;;3.50;99.90;;;;;;5055424;28;20357;-79
2022/12/02 10:00:58;;;;;;;32.20;9.57;;;3.50;99.90;;;;;;5037576;28;20036;-79
2022/12/02 10:03:26;;;;;;;31.50;8.87;;;3.50;99.90;;;;;;5037490;28;20115;-79
2022/12/02 10:05:55;;;;;;;27.23;8.93;;;3.70;99.90;;;;;;5055741;28;20295;-79
2022/12/02 10:08:24;;;;;;;29.60;9.50;;;3.70;99.90;;;;;;5055004;28;20032;-79
2022/12/02 10:10:53;;;;;;;29.02;9.75;;;3.70;99.90;;;;;;5055781;28;20105;-78
2022/12/02 10:13:20;;;;;;;40.33;10.45;;;3.80;99.90;;;;;;5035776;28;20068;-78
2022/12/02 10:15:46;;;;;;;28.85;9.23;;;3.80;99.90;;;;;;5055567;28;20025;-78
2022/12/02 10:18:22;;;;;;;32.45;9.13;;;3.80;99.90;;;;;;5054835;28;20492;-78
2022/12/02 10:20:51;;;;;;;29.15;9.38;;;3.80;99.90;;;;;;5036023;28;20179;-78
2022/12/02 10:23:27;;;;;;;29.90;9.88;;;3.80;99.90;;;;;;5055067;28;20032;-78
2022/12/02 10:26:08;;;;;;;35.00;10.18;;;3.80;99.90;;;;;;5036307;28;20032;-78
2022/12/02 10:28:39;;;;;;;25.30;9.65;;;3.80;99.90;;;;;;5055330;28;20029;-78
2022/12/02 10:31:14;;;;;;;31.08;9.10;;;3.90;99.90;;;;;;5054418;28;20108;-78
2022/12/02 10:33:52;;;;;;;32.78;9.45;;;3.90;99.90;;;;;;5036461;28;20025;-78
2022/12/02 10:36:53;;;;;;;30.23;9.43;;;3.90;99.90;;;;;;5054318;28;20102;-78
2022/12/02 10:39:27;;;;;;;30.73;9.70;;;3.80;99.90;;;;;;4996515;28;20021;-78
2022/12/02 10:42:13;;;;;;;32.10;10.40;;;3.80;99.90;;;;;;5036370;28;20032;-78
2022/12/02 10:44:44;;;;;;;30.17;9.27;;;3.80;99.90;;;;;;5036242;28;20388;-78
2022/12/02 10:47:23;;;;;;;29.65;9.18;;;3.80;99.90;;;;;;5054716;28;20028;-78
2022/12/02 10:49:54;;;;;;;28.63;8.93;;;3.70;99.90;;;;;;5036888;28;20029;-78
2022/12/02 10:52:30;;;;;;;26.67;8.23;;;3.80;99.90;;;;;;5036959;28;20071;-78
2022/12/02 10:54:57;;;;;;;34.40;10.27;;;3.80;99.90;;;;;;5053949;28;20048;-78
2022/12/02 10:57:31;;;;;;;30.52;9.18;;;3.80;99.90;;;;;;5036404;28;20025;-78
2022/12/02 11:00:06;;;;;;;35.58;10.32;;;3.70;99.90;;;;;;5054308;28;20021;-78
2022/12/02 11:02:35;;;;;;;34.83;10.90;;;4.20;99.90;;;;;;5035732;28;20044;-78
2022/12/02 11:05:26;;;;;;;30.15;9.38;;;3.70;99.90;;;;;;5035950;28;20032;-78
2022/12/02 11:08:08;;;;;;;32.78;9.65;;;3.70;99.90;;;;;;5035917;28;20408;-78
2022/12/02 11:10:48;;;;;;;29.23;8.82;;;3.70;99.90;;;;;;5035770;28;20163;-78
2022/12/02 11:13:16;;;;;;;28.75;9.15;;;3.70;99.90;;;;;;5036036;28;20472;-78
2022/12/02 11:15:47;;;;;;;31.02;10.10;;;3.60;99.90;;;;;;5036275;28;20385;-78
2022/12/02 11:18:22;;;;;;;29.20;8.55;;;3.50;99.90;;;;;;5054459;28;20021;-78
2022/12/02 11:21:01;;;;;;;30.38;9.32;;;3.50;99.90;;;;;;5035461;28;20037;-78
2022/12/02 11:23:31;;;;;;;32.38;8.95;;;3.50;99.90;;;;;;5035663;28;20400;-78
2022/12/02 11:25:58;;;;;;;32.95;10.98;;;3.50;99.90;;;;;;5038960;28;20033;-78
2022/12/02 11:28:26;;;;;;;29.75;10.73;;;3.50;99.90;;;;;;5039237;28;20094;-78
2022/12/02 11:31:16;;;;;;;28.85;8.65;;;3.50;99.90;;;;;;5039656;28;20035;-78
2022/12/02 11:33:47;;;;;;;29.85;10.77;;;3.60;99.90;;;;;;5057247;28;20472;-78
2022/12/02 11:36:19;;;;;;;33.85;9.90;;;3.50;99.90;;;;;;5057634;28;20021;-78
2022/12/02 11:39:05;;;;;;;32.10;9.70;;;3.60;99.90;;;;;;5039500;28;20036;-78
2022/12/02 11:41:53;;;;;;;30.85;9.38;;;3.60;99.90;;;;;;5039296;28;20071;-78
2022/12/02 11:44:27;;;;;;;35.88;11.15;;;3.60;99.90;;;;;;5019205;28;20044;-78
2022/12/02 11:47:03;;;;;;;34.90;10.18;;;3.60;99.90;;;;;;5038611;28;20036;-78
2022/12/02 11:49:39;;;;;;;30.48;8.82;;;3.50;99.90;;;;;;5038991;28;20025;-78
2022/12/02 11:52:15;;;;;;;42.05;10.88;;;3.60;99.90;;;;;;5057295;28;20055;-78
2022/12/02 11:55:02;;;;;;;36.90;11.10;;;3.60;99.90;;;;;;5057823;28;20055;-78
2022/12/02 11:57:47;;;;;;;33.92;9.55;;;3.50;99.90;;;;;;5057296;28;20100;-79
2022/12/02 12:00:34;;;;;;;36.80;9.18;;;3.50;99.90;;;;;;5058332;28;20033;-79
2022/12/02 12:03:14;;;;;;;42.38;12.15;;;3.50;99.90;;;;;;5040762;28;20072;-79
2022/12/02 12:05:42;;;;;;;35.60;10.55;;;3.40;99.90;;;;;;5039582;28;20071;-79
2022/12/02 12:08:07;;;;;;;49.70;11.85;;;3.40;99.90;;;;;;5038854;28;20039;-79
2022/12/02 12:10:38;;;;;;;41.40;12.27;;;3.10;99.90;;;;;;5058579;28;20028;-79
2022/12/02 12:13:22;;;;;;;52.30;12.25;;;3.30;99.90;;;;;;5040379;28;20470;-78
2022/12/02 12:15:56;;;;;;;48.13;12.30;;;3.30;99.90;;;;;;5039669;28;20479;-78
2022/12/02 12:18:47;;;;;;;43.85;12.18;;;3.30;99.90;;;;;;5039591;28;20009;-78
2022/12/02 12:21:34;;;;;;;40.20;11.27;;;3.20;99.90;;;;;;5039431;28;20029;-78
2022/12/02 12:24:22;;;;;;;43.92;11.07;;;3.20;99.90;;;;;;5026473;28;20068;-77
2022/12/02 12:26:50;;;;;;;28.50;7.30;;;3.20;99.90;;;;;;5057892;28;20104;-79
2022/12/02 12:29:16;;;;;;;42.53;11.35;;;3.20;99.90;;;;;;5038828;28;20029;-79
2022/12/02 12:31:42;;;;;;;41.03;11.27;;;3.30;99.90;;;;;;5057609;28;20025;-79
2022/12/02 12:34:08;;;;;;;39.78;10.85;;;3.20;99.90;;;;;;5057816;28;20029;-79
2022/12/02 12:36:38;;;;;;;38.30;10.80;;;3.20;99.90;;;;;;5038775;28;20013;-79
2022/12/02 12:39:05;;;;;;;41.88;11.65;;;3.20;99.90;;;;;;5038769;28;20029;-79
2022/12/02 12:41:31;;;;;;;44.58;11.93;;;;;;;;;;5039567;28;20059;-79
2022/12/02 12:43:57;;;;;;;44.17;12.57;;;3.30;99.90;;;;;;5056765;28;20029;-79
2022/12/02 12:46:23;;;;;;;41.08;11.57;;;;;;;;;;5039009;28;20036;-79
2022/12/02 12:48:49;;;;;;;34.88;10.85;;;3.30;99.90;;;;;;5039375;28;20098;-79
2022/12/02 12:51:17;;;;;;;40.97;10.88;;;3.30;99.90;;;;;;5039066;28;20021;-79
2022/12/02 12:53:49;;;;;;;40.90;11.65;;;3.20;99.90;;;;;;5058062;28;20499;-79
2022/12/02 12:56:15;;;;;;;42.60;12.00;;;3.20;99.90;;;;;;5040485;28;20048;-79
2022/12/02 12:58:51;;;;;;;43.75;12.38;;;3.20;99.90;;;;;;5040288;28;20472;-79
2022/12/02 13:01:16;;;;;;;41.80;12.13;;;3.30;99.90;;;;;;5058283;28;20418;-79
2022/12/02 13:03:42;;;;;;;30.92;9.07;;;3.20;99.90;;;;;;5056502;28;20021;-79